Machen, United Kingdom
Current Conditions -  °F | °C
As of 10:20 AM on Friday 24 Oct 2014 (Local Time) from EGFF Reporting Station
Moderate Rain Moderate Rain  
Wind Chill: 57°   Ceiling: 200
Heat Index: 57°   Visibility: 1mi
Dew Point: 57°   Wind: 7mph
Humidity: 100%   Direction: 270°W
Pressure: 29.94"   Gusts: NA
Location:  51.6°N, 3.14°W
Report Text: EGFF 240920Z 27006KT 1700 DZRA BKN002 OVC006 14/14 Q1014 REDZ
Loading
Personal Weather Stations






























Interactive Weather Map
Tropical Storm Tracking
New forecast layout! Learn more

10-Day Weather Forecast

Advertisements
Track Severe Weather on mobile